sensor_id;sensor_type;location;lat;lon;timestamp;pressure;altitude;pressure_sealevel;temperature;humidity
34065;BME280;20339;49.754;20.158;2023-02-26T00:00:15;95321.68;;;0.02;90.08
34065;BME280;20339;49.754;20.158;2023-02-26T00:03:08;95339.77;;;-0.01;90.09
34065;BME280;20339;49.754;20.158;2023-02-26T00:05:37;95349.29;;;-0.02;90.34
34065;BME280;20339;49.754;20.158;2023-02-26T00:08:07;95352.46;;;-0.02;90.27
34065;BME280;20339;49.754;20.158;2023-02-26T00:10:36;95344.61;;;-0.01;90.30
34065;BME280;20339;49.754;20.158;2023-02-26T00:13:06;95340.36;;;-0.04;90.34
34065;BME280;20339;49.754;20.158;2023-02-26T00:15:35;95348.16;;;-0.06;90.57
34065;BME280;20339;49.754;20.158;2023-02-26T00:18:06;95360.27;;;-0.10;90.89
34065;BME280;20339;49.754;20.158;2023-02-26T00:20:38;95364.84;;;-0.17;91.29
34065;BME280;20339;49.754;20.158;2023-02-26T00:23:09;95367.90;;;-0.22;91.78
34065;BME280;20339;49.754;20.158;2023-02-26T00:25:41;95362.42;;;-0.26;92.22
34065;BME280;20339;49.754;20.158;2023-02-26T00:28:11;95356.48;;;-0.30;92.19
34065;BME280;20339;49.754;20.158;2023-02-26T00:30:41;95360.52;;;-0.31;92.55
34065;BME280;20339;49.754;20.158;2023-02-26T00:33:11;95364.76;;;-0.31;92.73
34065;BME280;20339;49.754;20.158;2023-02-26T00:35:40;95371.59;;;-0.29;92.30
34065;BME280;20339;49.754;20.158;2023-02-26T00:38:10;95386.14;;;-0.28;92.39
34065;BME280;20339;49.754;20.158;2023-02-26T00:40:42;95394.88;;;-0.29;92.52
34065;BME280;20339;49.754;20.158;2023-02-26T00:43:14;95392.83;;;-0.28;92.63
34065;BME280;20339;49.754;20.158;2023-02-26T00:45:46;95393.11;;;-0.26;92.62
34065;BME280;20339;49.754;20.158;2023-02-26T00:48:24;95390.90;;;-0.24;92.48
34065;BME280;20339;49.754;20.158;2023-02-26T00:50:58;95388.30;;;-0.23;92.47
34065;BME280;20339;49.754;20.158;2023-02-26T00:53:30;95394.97;;;-0.24;92.57
34065;BME280;20339;49.754;20.158;2023-02-26T00:56:01;95395.52;;;-0.25;92.67
34065;BME280;20339;49.754;20.158;2023-02-26T00:58:30;95388.90;;;-0.28;93.28
34065;BME280;20339;49.754;20.158;2023-02-26T01:01:00;95388.70;;;-0.31;92.93
34065;BME280;20339;49.754;20.158;2023-02-26T01:03:29;95387.07;;;-0.29;92.90
34065;BME280;20339;49.754;20.158;2023-02-26T01:05:59;95383.73;;;-0.29;92.80
34065;BME280;20339;49.754;20.158;2023-02-26T01:08:29;95384.51;;;-0.27;92.61
34065;BME280;20339;49.754;20.158;2023-02-26T01:11:01;95389.55;;;-0.24;92.63
34065;BME280;20339;49.754;20.158;2023-02-26T01:13:31;95368.36;;;-0.22;92.42
34065;BME280;20339;49.754;20.158;2023-02-26T01:16:01;95365.91;;;-0.22;92.41
34065;BME280;20339;49.754;20.158;2023-02-26T01:18:35;95359.61;;;-0.23;92.30
34065;BME280;20339;49.754;20.158;2023-02-26T01:21:07;95348.61;;;-0.23;92.47
34065;BME280;20339;49.754;20.158;2023-02-26T01:23:39;95347.27;;;-0.23;92.24
34065;BME280;20339;49.754;20.158;2023-02-26T01:26:11;95342.20;;;-0.24;91.96
34065;BME280;20339;49.754;20.158;2023-02-26T01:28:44;95345.45;;;-0.22;91.80
34065;BME280;20339;49.754;20.158;2023-02-26T01:31:15;95352.55;;;-0.21;91.95
34065;BME280;20339;49.754;20.158;2023-02-26T01:33:46;95345.67;;;-0.21;91.95
34065;BME280;20339;49.754;20.158;2023-02-26T01:36:20;95342.34;;;-0.26;91.72
34065;BME280;20339;49.754;20.158;2023-02-26T01:38:51;95357.71;;;-0.32;91.75
34065;BME280;20339;49.754;20.158;2023-02-26T01:41:28;95368.60;;;-0.36;91.99
34065;BME280;20339;49.754;20.158;2023-02-26T01:44:03;95378.30;;;-0.36;92.06
34065;BME280;20339;49.754;20.158;2023-02-26T01:46:34;95385.41;;;-0.37;91.91
34065;BME280;20339;49.754;20.158;2023-02-26T01:49:07;95390.80;;;-0.39;91.76
34065;BME280;20339;49.754;20.158;2023-02-26T01:51:45;95395.24;;;-0.38;92.04
34065;BME280;20339;49.754;20.158;2023-02-26T01:54:15;95403.49;;;-0.39;92.15
34065;BME280;20339;49.754;20.158;2023-02-26T01:56:46;95405.48;;;-0.39;92.28
34065;BME280;20339;49.754;20.158;2023-02-26T01:59:16;95420.23;;;-0.38;92.48
34065;BME280;20339;49.754;20.158;2023-02-26T02:01:52;95421.46;;;-0.39;92.22
34065;BME280;20339;49.754;20.158;2023-02-26T02:04:22;95426.25;;;-0.45;92.25
34065;BME280;20339;49.754;20.158;2023-02-26T02:06:52;95418.18;;;-0.49;92.22
34065;BME280;20339;49.754;20.158;2023-02-26T02:09:21;95423.06;;;-0.50;92.34
34065;BME280;20339;49.754;20.158;2023-02-26T02:12:01;95420.71;;;-0.51;92.15
34065;BME280;20339;49.754;20.158;2023-02-26T02:14:39;95422.11;;;-0.55;92.70
34065;BME280;20339;49.754;20.158;2023-02-26T02:17:11;95416.83;;;-0.60;92.73
34065;BME280;20339;49.754;20.158;2023-02-26T02:22:46;95422.04;;;-0.59;92.89
34065;BME280;20339;49.754;20.158;2023-02-26T02:25:30;95430.55;;;-0.61;93.05
34065;BME280;20339;49.754;20.158;2023-02-26T02:28:04;95441.34;;;-0.63;93.25
34065;BME280;20339;49.754;20.158;2023-02-26T02:30:39;95446.00;;;-0.65;93.63
34065;BME280;20339;49.754;20.158;2023-02-26T02:33:11;95454.29;;;-0.68;93.39
34065;BME280;20339;49.754;20.158;2023-02-26T02:35:43;95445.78;;;-0.69;93.45
34065;BME280;20339;49.754;20.158;2023-02-26T02:38:15;95455.56;;;-0.71;93.37
34065;BME280;20339;49.754;20.158;2023-02-26T02:40:45;95475.27;;;-0.68;93.47
34065;BME280;20339;49.754;20.158;2023-02-26T02:43:17;95483.05;;;-0.66;93.35
34065;BME280;20339;49.754;20.158;2023-02-26T02:45:49;95478.86;;;-0.68;93.23
34065;BME280;20339;49.754;20.158;2023-02-26T02:48:20;95470.40;;;-0.69;92.98
34065;BME280;20339;49.754;20.158;2023-02-26T02:50:53;95466.73;;;-0.73;93.08
34065;BME280;20339;49.754;20.158;2023-02-26T02:53:24;95449.08;;;-0.74;92.75
34065;BME280;20339;49.754;20.158;2023-02-26T02:55:56;95456.44;;;-0.75;92.87
34065;BME280;20339;49.754;20.158;2023-02-26T02:58:27;95452.89;;;-0.76;92.50
34065;BME280;20339;49.754;20.158;2023-02-26T03:00:59;95439.20;;;-0.73;92.47
34065;BME280;20339;49.754;20.158;2023-02-26T03:03:31;95432.92;;;-0.72;92.50
34065;BME280;20339;49.754;20.158;2023-02-26T03:06:02;95449.63;;;-0.70;92.36
34065;BME280;20339;49.754;20.158;2023-02-26T03:08:33;95456.11;;;-0.68;92.28
34065;BME280;20339;49.754;20.158;2023-02-26T03:11:03;95456.58;;;-0.64;92.39
34065;BME280;20339;49.754;20.158;2023-02-26T03:13:32;95480.22;;;-0.60;92.64
34065;BME280;20339;49.754;20.158;2023-02-26T03:16:07;95477.23;;;-0.56;92.26
34065;BME280;20339;49.754;20.158;2023-02-26T03:18:44;95478.32;;;-0.57;91.52
34065;BME280;20339;49.754;20.158;2023-02-26T03:21:18;95490.46;;;-0.61;91.53
34065;BME280;20339;49.754;20.158;2023-02-26T03:23:52;95485.60;;;-0.62;91.51
34065;BME280;20339;49.754;20.158;2023-02-26T03:26:25;95525.84;;;-0.58;91.81
34065;BME280;20339;49.754;20.158;2023-02-26T03:28:58;95507.52;;;-0.55;91.72
34065;BME280;20339;49.754;20.158;2023-02-26T03:31:32;95526.83;;;-0.53;91.56
34065;BME280;20339;49.754;20.158;2023-02-26T03:34:04;95537.33;;;-0.56;91.44
34065;BME280;20339;49.754;20.158;2023-02-26T03:36:36;95530.95;;;-0.55;91.32
34065;BME280;20339;49.754;20.158;2023-02-26T03:39:08;95544.37;;;-0.59;90.66
34065;BME280;20339;49.754;20.158;2023-02-26T03:41:41;95517.04;;;-0.59;91.05
34065;BME280;20339;49.754;20.158;2023-02-26T03:44:15;95545.39;;;-0.57;91.10
34065;BME280;20339;49.754;20.158;2023-02-26T03:46:47;95535.08;;;-0.55;91.03
34065;BME280;20339;49.754;20.158;2023-02-26T03:49:19;95529.77;;;-0.57;91.20
34065;BME280;20339;49.754;20.158;2023-02-26T03:51:50;95526.98;;;-0.63;91.18
34065;BME280;20339;49.754;20.158;2023-02-26T03:54:20;95528.95;;;-0.63;91.00
34065;BME280;20339;49.754;20.158;2023-02-26T03:56:51;95525.77;;;-0.61;91.07
34065;BME280;20339;49.754;20.158;2023-02-26T03:59:20;95528.92;;;-0.61;90.98
34065;BME280;20339;49.754;20.158;2023-02-26T04:01:50;95542.14;;;-0.62;90.80
34065;BME280;20339;49.754;20.158;2023-02-26T04:04:24;95567.19;;;-0.65;90.68
34065;BME280;20339;49.754;20.158;2023-02-26T04:06:54;95581.46;;;-0.64;90.69
34065;BME280;20339;49.754;20.158;2023-02-26T04:09:24;95585.80;;;-0.59;91.01
34065;BME280;20339;49.754;20.158;2023-02-26T04:11:54;95580.19;;;-0.59;90.44
34065;BME280;20339;49.754;20.158;2023-02-26T04:14:24;95603.80;;;-0.69;90.52
34065;BME280;20339;49.754;20.158;2023-02-26T04:16:54;95609.41;;;-0.69;90.66
34065;BME280;20339;49.754;20.158;2023-02-26T04:19:23;95610.08;;;-0.67;90.90
34065;BME280;20339;49.754;20.158;2023-02-26T04:21:52;95609.09;;;-0.68;90.66
34065;BME280;20339;49.754;20.158;2023-02-26T04:24:21;95612.91;;;-0.71;90.67
34065;BME280;20339;49.754;20.158;2023-02-26T04:26:51;95602.54;;;-0.70;90.53
34065;BME280;20339;49.754;20.158;2023-02-26T04:29:20;95583.54;;;-0.72;90.53
34065;BME280;20339;49.754;20.158;2023-02-26T04:31:50;95603.55;;;-0.73;90.61
34065;BME280;20339;49.754;20.158;2023-02-26T04:34:19;95603.92;;;-0.81;90.26
34065;BME280;20339;49.754;20.158;2023-02-26T04:36:49;95611.01;;;-0.88;91.18
34065;BME280;20339;49.754;20.158;2023-02-26T04:39:18;95601.44;;;-0.91;90.80
34065;BME280;20339;49.754;20.158;2023-02-26T04:41:48;95604.54;;;-0.93;90.53
34065;BME280;20339;49.754;20.158;2023-02-26T04:44:17;95597.30;;;-0.90;90.33
34065;BME280;20339;49.754;20.158;2023-02-26T04:46:46;95598.02;;;-0.88;90.49
34065;BME280;20339;49.754;20.158;2023-02-26T04:49:16;95604.59;;;-0.87;90.23
34065;BME280;20339;49.754;20.158;2023-02-26T04:51:48;95608.42;;;-0.88;89.87
34065;BME280;20339;49.754;20.158;2023-02-26T04:54:18;95600.20;;;-0.88;89.79
34065;BME280;20339;49.754;20.158;2023-02-26T04:56:47;95624.06;;;-0.86;89.85
34065;BME280;20339;49.754;20.158;2023-02-26T04:59:16;95612.50;;;-0.86;90.21
34065;BME280;20339;49.754;20.158;2023-02-26T05:01:46;95625.61;;;-0.87;90.06
34065;BME280;20339;49.754;20.158;2023-02-26T05:04:15;95606.09;;;-0.90;89.92
34065;BME280;20339;49.754;20.158;2023-02-26T05:06:44;95619.02;;;-0.92;89.96
34065;BME280;20339;49.754;20.158;2023-02-26T05:09:14;95614.39;;;-0.97;89.67
34065;BME280;20339;49.754;20.158;2023-02-26T05:11:43;95639.67;;;-1.01;89.79
34065;BME280;20339;49.754;20.158;2023-02-26T05:14:13;95615.51;;;-1.03;89.99
34065;BME280;20339;49.754;20.158;2023-02-26T05:16:42;95629.95;;;-1.09;90.09
34065;BME280;20339;49.754;20.158;2023-02-26T05:19:12;95636.66;;;-1.12;90.00
34065;BME280;20339;49.754;20.158;2023-02-26T05:21:41;95632.50;;;-1.13;90.04
34065;BME280;20339;49.754;20.158;2023-02-26T05:24:11;95628.10;;;-1.08;90.10
34065;BME280;20339;49.754;20.158;2023-02-26T05:26:41;95630.95;;;-1.03;90.17
34065;BME280;20339;49.754;20.158;2023-02-26T05:29:10;95648.84;;;-1.01;90.23
34065;BME280;20339;49.754;20.158;2023-02-26T05:31:39;95645.48;;;-0.98;90.25
34065;BME280;20339;49.754;20.158;2023-02-26T05:34:09;95657.10;;;-1.02;90.22
34065;BME280;20339;49.754;20.158;2023-02-26T05:36:39;95667.25;;;-1.01;90.30
34065;BME280;20339;49.754;20.158;2023-02-26T05:39:09;95675.61;;;-0.99;90.54
34065;BME280;20339;49.754;20.158;2023-02-26T05:41:38;95691.05;;;-0.96;90.59
34065;BME280;20339;49.754;20.158;2023-02-26T05:44:07;95700.64;;;-0.95;90.57
34065;BME280;20339;49.754;20.158;2023-02-26T05:46:37;95704.63;;;-0.94;90.27
34065;BME280;20339;49.754;20.158;2023-02-26T05:49:06;95712.38;;;-0.97;90.19
34065;BME280;20339;49.754;20.158;2023-02-26T05:51:36;95712.75;;;-0.96;89.94
34065;BME280;20339;49.754;20.158;2023-02-26T05:54:06;95724.18;;;-0.97;90.02
34065;BME280;20339;49.754;20.158;2023-02-26T05:56:36;95735.96;;;-0.98;89.71
34065;BME280;20339;49.754;20.158;2023-02-26T05:59:05;95753.73;;;-1.01;89.85
34065;BME280;20339;49.754;20.158;2023-02-26T06:01:35;95763.30;;;-1.08;89.41
34065;BME280;20339;49.754;20.158;2023-02-26T06:04:05;95750.73;;;-1.12;89.61
34065;BME280;20339;49.754;20.158;2023-02-26T06:06:34;95746.94;;;-1.16;89.30
34065;BME280;20339;49.754;20.158;2023-02-26T06:09:04;95759.56;;;-1.24;89.16
34065;BME280;20339;49.754;20.158;2023-02-26T06:11:33;95759.54;;;-1.25;88.94
34065;BME280;20339;49.754;20.158;2023-02-26T06:14:03;95769.64;;;-1.22;88.99
34065;BME280;20339;49.754;20.158;2023-02-26T06:16:33;95768.21;;;-1.18;89.23
34065;BME280;20339;49.754;20.158;2023-02-26T06:19:02;95765.94;;;-1.20;88.99
34065;BME280;20339;49.754;20.158;2023-02-26T06:21:33;95778.17;;;-1.24;88.71
34065;BME280;20339;49.754;20.158;2023-02-26T06:24:02;95779.71;;;-1.25;88.54
34065;BME280;20339;49.754;20.158;2023-02-26T06:26:31;95778.52;;;-1.26;88.35
34065;BME280;20339;49.754;20.158;2023-02-26T06:29:01;95775.21;;;-1.24;88.31
34065;BME280;20339;49.754;20.158;2023-02-26T06:31:30;95777.73;;;-1.20;88.00
34065;BME280;20339;49.754;20.158;2023-02-26T06:33:59;95786.83;;;-1.18;87.70
34065;BME280;20339;49.754;20.158;2023-02-26T06:36:29;95791.48;;;-1.14;87.65
34065;BME280;20339;49.754;20.158;2023-02-26T06:38:58;95794.63;;;-1.16;86.80
34065;BME280;20339;49.754;20.158;2023-02-26T06:41:27;95795.15;;;-1.13;86.81
34065;BME280;20339;49.754;20.158;2023-02-26T06:43:57;95794.14;;;-1.08;86.46
34065;BME280;20339;49.754;20.158;2023-02-26T06:46:26;95798.02;;;-1.02;86.67
34065;BME280;20339;49.754;20.158;2023-02-26T06:48:56;95805.49;;;-0.97;86.12
34065;BME280;20339;49.754;20.158;2023-02-26T06:51:27;95806.13;;;-0.92;86.30
34065;BME280;20339;49.754;20.158;2023-02-26T06:53:57;95800.73;;;-0.88;86.05
34065;BME280;20339;49.754;20.158;2023-02-26T06:56:27;95806.21;;;-0.84;85.90
34065;BME280;20339;49.754;20.158;2023-02-26T06:58:56;95816.14;;;-0.82;85.49
34065;BME280;20339;49.754;20.158;2023-02-26T07:01:26;95826.67;;;-0.87;85.31
34065;BME280;20339;49.754;20.158;2023-02-26T07:03:55;95828.40;;;-0.96;84.89
34065;BME280;20339;49.754;20.158;2023-02-26T07:06:25;95835.11;;;-1.02;85.11
34065;BME280;20339;49.754;20.158;2023-02-26T07:08:54;95840.49;;;-1.03;84.95
34065;BME280;20339;49.754;20.158;2023-02-26T07:11:24;95846.41;;;-1.06;85.03
34065;BME280;20339;49.754;20.158;2023-02-26T07:13:53;95846.02;;;-1.12;85.04
34065;BME280;20339;49.754;20.158;2023-02-26T07:16:23;95839.40;;;-1.18;85.42
34065;BME280;20339;49.754;20.158;2023-02-26T07:18:52;95838.13;;;-1.22;85.56
34065;BME280;20339;49.754;20.158;2023-02-26T07:21:22;95843.92;;;-1.24;85.61
34065;BME280;20339;49.754;20.158;2023-02-26T07:23:52;95846.40;;;-1.30;85.61
34065;BME280;20339;49.754;20.158;2023-02-26T07:26:22;95847.78;;;-1.25;85.55
34065;BME280;20339;49.754;20.158;2023-02-26T07:28:51;95859.73;;;-1.08;85.80
34065;BME280;20339;49.754;20.158;2023-02-26T07:31:21;95870.59;;;-0.94;85.50
34065;BME280;20339;49.754;20.158;2023-02-26T07:33:51;95871.83;;;-0.95;84.95
34065;BME280;20339;49.754;20.158;2023-02-26T07:36:20;95881.61;;;-1.02;84.88
34065;BME280;20339;49.754;20.158;2023-02-26T07:38:50;95887.87;;;-1.19;85.10
34065;BME280;20339;49.754;20.158;2023-02-26T07:41:19;95895.86;;;-1.28;85.56
34065;BME280;20339;49.754;20.158;2023-02-26T07:43:49;95898.20;;;-1.30;85.22
34065;BME280;20339;49.754;20.158;2023-02-26T07:46:19;95906.77;;;-1.36;85.01
34065;BME280;20339;49.754;20.158;2023-02-26T07:48:49;95914.42;;;-1.41;85.23
34065;BME280;20339;49.754;20.158;2023-02-26T07:51:19;95913.99;;;-1.40;84.83
34065;BME280;20339;49.754;20.158;2023-02-26T07:53:48;95919.60;;;-1.42;84.46
34065;BME280;20339;49.754;20.158;2023-02-26T07:56:18;95921.85;;;-1.33;84.95
34065;BME280;20339;49.754;20.158;2023-02-26T07:58:47;95919.88;;;-1.14;84.94
34065;BME280;20339;49.754;20.158;2023-02-26T08:01:17;95920.45;;;-1.04;84.63
34065;BME280;20339;49.754;20.158;2023-02-26T08:03:47;95927.77;;;-1.03;84.05
34065;BME280;20339;49.754;20.158;2023-02-26T08:06:17;95926.30;;;-1.07;83.47
34065;BME280;20339;49.754;20.158;2023-02-26T08:08:46;95922.96;;;-1.08;83.32
34065;BME280;20339;49.754;20.158;2023-02-26T08:11:16;95923.34;;;-1.07;82.93
34065;BME280;20339;49.754;20.158;2023-02-26T08:13:45;95930.27;;;-1.02;83.20
34065;BME280;20339;49.754;20.158;2023-02-26T08:16:15;95928.74;;;-0.84;83.68
34065;BME280;20339;49.754;20.158;2023-02-26T08:18:46;95926.60;;;-0.63;83.35
34065;BME280;20339;49.754;20.158;2023-02-26T08:21:16;95927.88;;;-0.53;82.32
34065;BME280;20339;49.754;20.158;2023-02-26T08:23:46;95930.35;;;-0.41;82.60
34065;BME280;20339;49.754;20.158;2023-02-26T08:26:16;95936.98;;;-0.33;81.91
34065;BME280;20339;49.754;20.158;2023-02-26T08:28:47;95937.02;;;-0.47;80.92
34065;BME280;20339;49.754;20.158;2023-02-26T08:31:17;95939.91;;;-0.63;80.53
34065;BME280;20339;49.754;20.158;2023-02-26T08:33:47;95936.05;;;-0.86;79.74
34065;BME280;20339;49.754;20.158;2023-02-26T08:36:17;95960.88;;;-0.98;80.04
34065;BME280;20339;49.754;20.158;2023-02-26T08:38:49;95962.59;;;-0.83;80.41
34065;BME280;20339;49.754;20.158;2023-02-26T08:41:19;95964.81;;;-0.17;80.35
34065;BME280;20339;49.754;20.158;2023-02-26T08:43:49;95969.85;;;-0.29;78.91
34065;BME280;20339;49.754;20.158;2023-02-26T08:46:19;95973.48;;;-0.40;78.33
34065;BME280;20339;49.754;20.158;2023-02-26T08:48:48;95978.82;;;-0.39;79.37
34065;BME280;20339;49.754;20.158;2023-02-26T08:51:18;95974.48;;;-0.33;77.83
34065;BME280;20339;49.754;20.158;2023-02-26T08:53:52;95982.73;;;-0.45;77.32
34065;BME280;20339;49.754;20.158;2023-02-26T08:56:24;95990.92;;;-0.47;77.22
34065;BME280;20339;49.754;20.158;2023-02-26T08:58:56;95994.50;;;-0.47;76.87
34065;BME280;20339;49.754;20.158;2023-02-26T09:01:26;95998.83;;;-0.21;77.98
34065;BME280;20339;49.754;20.158;2023-02-26T09:03:55;95998.85;;;1.05;80.25
34065;BME280;20339;49.754;20.158;2023-02-26T09:06:25;95992.08;;;2.38;80.18
34065;BME280;20339;49.754;20.158;2023-02-26T09:08:54;95991.95;;;3.24;79.11
34065;BME280;20339;49.754;20.158;2023-02-26T09:11:24;95994.63;;;3.76;76.39
34065;BME280;20339;49.754;20.158;2023-02-26T09:13:57;95993.73;;;3.62;73.05
34065;BME280;20339;49.754;20.158;2023-02-26T09:16:27;95988.95;;;3.63;72.65
34065;BME280;20339;49.754;20.158;2023-02-26T09:19:02;95995.32;;;3.48;70.63
34065;BME280;20339;49.754;20.158;2023-02-26T09:21:32;96003.69;;;3.19;70.84
34065;BME280;20339;49.754;20.158;2023-02-26T09:24:03;96010.91;;;2.95;70.74
34065;BME280;20339;49.754;20.158;2023-02-26T09:26:33;96029.38;;;2.11;69.94
34065;BME280;20339;49.754;20.158;2023-02-26T09:29:03;96039.17;;;1.09;71.65
34065;BME280;20339;49.754;20.158;2023-02-26T09:31:32;96042.40;;;0.43;73.97
34065;BME280;20339;49.754;20.158;2023-02-26T09:34:02;96052.33;;;-0.19;75.48
34065;BME280;20339;49.754;20.158;2023-02-26T09:36:32;96052.13;;;-0.52;76.68
34065;BME280;20339;49.754;20.158;2023-02-26T09:39:02;96048.63;;;-0.77;76.95
34065;BME280;20339;49.754;20.158;2023-02-26T09:41:33;96047.74;;;-1.00;77.32
34065;BME280;20339;49.754;20.158;2023-02-26T09:44:08;96057.02;;;-1.05;77.97
34065;BME280;20339;49.754;20.158;2023-02-26T09:46:44;96058.64;;;-0.98;77.78
34065;BME280;20339;49.754;20.158;2023-02-26T09:49:17;96057.64;;;-0.90;77.84
34065;BME280;20339;49.754;20.158;2023-02-26T09:51:48;96057.86;;;-0.92;78.39
34065;BME280;20339;49.754;20.158;2023-02-26T09:54:23;96064.21;;;-0.94;78.38
34065;BME280;20339;49.754;20.158;2023-02-26T09:56:54;96068.76;;;-0.80;78.65
34065;BME280;20339;49.754;20.158;2023-02-26T09:59:26;96067.59;;;-0.62;78.88
34065;BME280;20339;49.754;20.158;2023-02-26T10:01:59;96070.20;;;-0.52;78.63
34065;BME280;20339;49.754;20.158;2023-02-26T10:04:36;96070.58;;;-0.27;79.40
34065;BME280;20339;49.754;20.158;2023-02-26T10:07:12;96077.77;;;-0.06;78.38
34065;BME280;20339;49.754;20.158;2023-02-26T10:09:49;96080.31;;;-0.17;78.61
34065;BME280;20339;49.754;20.158;2023-02-26T10:12:24;96083.38;;;-0.42;78.68
34065;BME280;20339;49.754;20.158;2023-02-26T10:14:54;96084.65;;;-0.61;78.49
34065;BME280;20339;49.754;20.158;2023-02-26T10:17:28;96094.15;;;-0.75;78.72
34065;BME280;20339;49.754;20.158;2023-02-26T10:19:59;96095.64;;;-0.81;78.76
34065;BME280;20339;49.754;20.158;2023-02-26T10:22:33;96096.10;;;-0.88;78.51
34065;BME280;20339;49.754;20.158;2023-02-26T10:25:06;96102.36;;;-0.92;78.46
34065;BME280;20339;49.754;20.158;2023-02-26T10:27:44;96106.70;;;-0.93;78.22
34065;BME280;20339;49.754;20.158;2023-02-26T10:30:19;96109.20;;;-0.74;78.49
34065;BME280;20339;49.754;20.158;2023-02-26T10:32:54;96113.65;;;-0.43;78.42
34065;BME280;20339;49.754;20.158;2023-02-26T10:35:26;96114.35;;;-0.16;78.37
34065;BME280;20339;49.754;20.158;2023-02-26T10:37:58;96115.70;;;0.07;78.23
34065;BME280;20339;49.754;20.158;2023-02-26T10:40:31;96121.02;;;0.12;77.23
34065;BME280;20339;49.754;20.158;2023-02-26T10:43:03;96122.59;;;0.03;76.66
34065;BME280;20339;49.754;20.158;2023-02-26T10:45:41;96122.45;;;0.00;76.82
34065;BME280;20339;49.754;20.158;2023-02-26T10:48:24;96119.48;;;0.01;76.19
34065;BME280;20339;49.754;20.158;2023-02-26T10:50:58;96121.08;;;-0.01;76.20
34065;BME280;20339;49.754;20.158;2023-02-26T10:53:29;96119.02;;;-0.00;76.14
34065;BME280;20339;49.754;20.158;2023-02-26T10:56:00;96114.13;;;0.11;76.11
34065;BME280;20339;49.754;20.158;2023-02-26T10:58:32;96116.95;;;0.20;75.72
34065;BME280;20339;49.754;20.158;2023-02-26T11:01:02;96123.11;;;0.05;74.77
34065;BME280;20339;49.754;20.158;2023-02-26T11:03:36;96133.44;;;-0.03;74.87
34065;BME280;20339;49.754;20.158;2023-02-26T11:06:07;96136.58;;;0.08;75.53
34065;BME280;20339;49.754;20.158;2023-02-26T11:08:41;96133.04;;;0.09;74.85
34065;BME280;20339;49.754;20.158;2023-02-26T11:11:11;96139.12;;;-0.05;74.18
34065;BME280;20339;49.754;20.158;2023-02-26T11:14:04;96145.16;;;-0.01;74.61
34065;BME280;20339;49.754;20.158;2023-02-26T11:16:33;96149.65;;;0.38;75.42
34065;BME280;20339;49.754;20.158;2023-02-26T11:19:04;96144.12;;;0.89;75.60
34065;BME280;20339;49.754;20.158;2023-02-26T11:21:36;96143.11;;;1.54;75.75
34065;BME280;20339;49.754;20.158;2023-02-26T11:24:09;96140.94;;;1.64;72.34
34065;BME280;20339;49.754;20.158;2023-02-26T11:26:41;96146.16;;;1.50;72.18
34065;BME280;20339;49.754;20.158;2023-02-26T11:29:14;96149.75;;;1.34;71.21
34065;BME280;20339;49.754;20.158;2023-02-26T11:31:48;96158.50;;;0.97;69.68
34065;BME280;20339;49.754;20.158;2023-02-26T11:34:20;96162.86;;;0.80;69.89
34065;BME280;20339;49.754;20.158;2023-02-26T11:36:50;96168.16;;;0.76;70.29
34065;BME280;20339;49.754;20.158;2023-02-26T11:39:24;96162.41;;;0.78;70.06
34065;BME280;20339;49.754;20.158;2023-02-26T11:41:56;96165.20;;;0.70;70.48
34065;BME280;20339;49.754;20.158;2023-02-26T11:44:32;96163.46;;;0.78;70.84
34065;BME280;20339;49.754;20.158;2023-02-26T11:47:04;96158.76;;;0.87;71.82
34065;BME280;20339;49.754;20.158;2023-02-26T11:49:35;96167.02;;;0.93;71.59
34065;BME280;20339;49.754;20.158;2023-02-26T11:52:17;96171.09;;;0.93;71.92
34065;BME280;20339;49.754;20.158;2023-02-26T11:54:49;96176.42;;;0.98;72.26
34065;BME280;20339;49.754;20.158;2023-02-26T11:57:22;96183.45;;;0.99;72.38
34065;BME280;20339;49.754;20.158;2023-02-26T11:59:53;96189.36;;;0.93;71.86
34065;BME280;20339;49.754;20.158;2023-02-26T12:02:23;96200.75;;;0.73;71.88
34065;BME280;20339;49.754;20.158;2023-02-26T12:04:55;96203.33;;;0.39;71.51
34065;BME280;20339;49.754;20.158;2023-02-26T12:07:25;96210.47;;;0.08;72.74
34065;BME280;20339;49.754;20.158;2023-02-26T12:09:56;96208.05;;;-0.19;73.94
34065;BME280;20339;49.754;20.158;2023-02-26T12:12:29;96211.14;;;-0.38;74.25
34065;BME280;20339;49.754;20.158;2023-02-26T12:15:07;96213.77;;;-0.48;74.82
34065;BME280;20339;49.754;20.158;2023-02-26T12:17:45;96215.73;;;-0.51;75.13
34065;BME280;20339;49.754;20.158;2023-02-26T12:20:20;96215.41;;;-0.47;75.53
34065;BME280;20339;49.754;20.158;2023-02-26T12:22:55;96213.34;;;-0.41;75.10
34065;BME280;20339;49.754;20.158;2023-02-26T12:25:43;96212.44;;;-0.36;75.14
34065;BME280;20339;49.754;20.158;2023-02-26T12:28:35;96213.98;;;-0.24;74.71
34065;BME280;20339;49.754;20.158;2023-02-26T12:31:16;96213.29;;;-0.18;74.17
34065;BME280;20339;49.754;20.158;2023-02-26T12:33:54;96215.30;;;0.04;74.11
34065;BME280;20339;49.754;20.158;2023-02-26T12:36:40;96221.98;;;0.30;73.16
34065;BME280;20339;49.754;20.158;2023-02-26T12:39:19;96223.52;;;0.63;73.26
34065;BME280;20339;49.754;20.158;2023-02-26T12:41:58;96229.27;;;0.96;72.73
34065;BME280;20339;49.754;20.158;2023-02-26T12:44:42;96230.45;;;1.03;71.49
34065;BME280;20339;49.754;20.158;2023-02-26T12:47:24;96226.32;;;1.16;70.54
34065;BME280;20339;49.754;20.158;2023-02-26T12:50:05;96228.96;;;1.21;68.83
34065;BME280;20339;49.754;20.158;2023-02-26T12:52:40;96233.30;;;1.09;67.96
34065;BME280;20339;49.754;20.158;2023-02-26T12:55:16;96239.41;;;1.04;69.54
34065;BME280;20339;49.754;20.158;2023-02-26T13:00:48;96260.10;;;0.96;71.27
34065;BME280;20339;49.754;20.158;2023-02-26T13:03:28;96260.61;;;0.80;71.47
34065;BME280;20339;49.754;20.158;2023-02-26T13:08:58;96276.63;;;0.46;71.38
34065;BME280;20339;49.754;20.158;2023-02-26T13:11:46;96271.97;;;0.27;71.14
34065;BME280;20339;49.754;20.158;2023-02-26T13:14:23;96270.85;;;0.05;71.15
34065;BME280;20339;49.754;20.158;2023-02-26T13:16:58;96281.73;;;-0.13;71.83
34065;BME280;20339;49.754;20.158;2023-02-26T13:19:32;96288.60;;;-0.24;72.09
34065;BME280;20339;49.754;20.158;2023-02-26T13:22:05;96286.38;;;-0.31;72.59
34065;BME280;20339;49.754;20.158;2023-02-26T13:24:40;96289.82;;;-0.35;72.45